»·PEaware :: DAL2954 KSLC-KSEA

DAL2954 :: KSLC-KSEA

FLIGHT INFORMATION

Flight Status: Arrived
Operator:
Delta Air Lines
More flights by this operator :: More flights under this callsign
Pilot: Joe P. (13940)
Aircraft: BOEING 737-700
(B737)
More flights by this aircraft type
Origin: KSLC Salt Lake City Intl
United States
Destination: KSEA Seattle-Tacoma Intl
United States
More flights between these airports :: More routes between these airports
Route: CGULL1 TWF J15 BOI J163 BKE PDT CHINS3
File this flight plan on PilotEdge
Remarks: KPDX -PBN / A1B1C1D1L1O1S1 NAV / RNVD1E2A1 DOF / 180812 REG / N389DA EET / KZSE0054 RVR / 200 PER / C
Altitude:
(Current/Filed)
340ft
Speed:
(Current/Filed)
460kts
Departed: 12-Aug-18 06:47 AM
Arrived: 12-Aug-18 08:27 AM
Distance/Time
Traveled:
597nm/1:40
Distance/Time
To Go:
Arrived

Flight Plot

Page will automatically refresh every two minutes.

Flight plan parsing failed; only flown route is shown


Map Options




Map Legend


Flown Route
Filed Route
Departure Airport
Arrival Airport
Navaid (VOR, NDB)
Fix

Horizontal Profiles

Position Reports

Time Latitude Longitude Heading Altitude Ground
Speed
12-Aug-18 05:56 40.789075 -111.985536 130 4235ft 0kts
12-Aug-18 05:57 40.789075 -111.985536 130 4235ft 0kts
12-Aug-18 05:58 40.789075 -111.985536 130 4235ft 0kts
12-Aug-18 05:59 40.789075 -111.985536 130 4235ft 0kts
12-Aug-18 06:00 40.789075 -111.985536 130 4235ft 0kts
12-Aug-18 06:01 40.789075 -111.985536 130 4235ft 0kts
12-Aug-18 06:02 40.789075 -111.985536 130 4235ft 0kts
12-Aug-18 06:03 40.789075 -111.985536 130 4235ft 0kts
12-Aug-18 06:04 40.789075 -111.985536 130 4235ft 0kts
12-Aug-18 06:05 40.789075 -111.985536 130 4235ft 0kts
12-Aug-18 06:06 40.789075 -111.985536 130 4235ft 0kts
12-Aug-18 06:07 40.789075 -111.985536 130 4235ft 0kts
12-Aug-18 06:08 40.789075 -111.985536 130 4235ft 0kts
12-Aug-18 06:09 40.789075 -111.985536 130 4235ft 0kts
12-Aug-18 06:10 40.789075 -111.985536 130 4235ft 0kts
12-Aug-18 06:11 40.789075 -111.985536 130 4235ft 0kts
12-Aug-18 06:12 40.789075 -111.985536 130 4235ft 0kts
12-Aug-18 06:13 40.789075 -111.985536 130 4235ft 0kts
12-Aug-18 06:14 40.789075 -111.985536 130 4235ft 0kts
12-Aug-18 06:15 40.789075 -111.985536 130 4235ft 0kts
12-Aug-18 06:16 40.789075 -111.985536 130 4235ft 0kts
12-Aug-18 06:17 40.789075 -111.985536 130 4235ft 0kts
12-Aug-18 06:18 40.789075 -111.985536 130 4235ft 0kts
12-Aug-18 06:19 40.789075 -111.985536 130 4235ft 0kts
12-Aug-18 06:20 40.789075 -111.985536 130 4235ft 0kts
12-Aug-18 06:21 40.789075 -111.985536 130 4235ft 0kts
12-Aug-18 06:22 40.789075 -111.985536 130 4235ft 0kts
12-Aug-18 06:23 40.789075 -111.985536 130 4235ft 0kts
12-Aug-18 06:24 40.789075 -111.985536 130 4235ft 0kts
12-Aug-18 06:25 40.789075 -111.985536 130 4235ft 0kts
12-Aug-18 06:26 40.789075 -111.985536 130 4235ft 0kts
12-Aug-18 06:27 40.789075 -111.985536 130 4235ft 0kts
12-Aug-18 06:28 40.789075 -111.985536 130 4235ft 0kts
12-Aug-18 06:29 40.789075 -111.985536 130 4235ft 0kts
12-Aug-18 06:30 40.789075 -111.985536 130 4235ft 0kts
12-Aug-18 06:31 40.789075 -111.985536 130 4235ft 0kts
12-Aug-18 06:32 40.789075 -111.985536 130 4235ft 0kts
12-Aug-18 06:33 40.789075 -111.985536 130 4235ft 0kts
12-Aug-18 06:34 40.789075 -111.985536 130 4235ft 0kts
12-Aug-18 06:35 40.789075 -111.985536 130 4235ft 0kts
12-Aug-18 06:36 40.789078 -111.985541 130 4235ft 0kts
12-Aug-18 06:37 40.789412 -111.986213 103 4235ft 2kts
12-Aug-18 06:38 40.789244 -111.986634 27 4235ft 0kts
12-Aug-18 06:39 40.789244 -111.986634 27 4235ft 0kts
12-Aug-18 06:40 40.789244 -111.986634 27 4235ft 0kts
12-Aug-18 06:41 40.791370 -111.987488 286 4235ft 15kts
12-Aug-18 06:42 40.791140 -111.993793 278 4235ft 12kts
12-Aug-18 06:43 40.795738 -111.994743 354 4235ft 22kts
12-Aug-18 06:44 40.802433 -111.995526 353 4235ft 22kts
12-Aug-18 06:45 40.808160 -111.996323 327 4235ft 7kts
12-Aug-18 06:46 40.807952 -111.997984 234 4235ft 0kts
12-Aug-18 06:47 40.807606 -111.999204 232 4235ft 5kts
12-Aug-18 06:48 40.797396 -111.998101 174 4235ft 138kts
12-Aug-18 06:49 40.760150 -112.022844 267 6707ft 194kts
12-Aug-18 06:50 40.807617 -112.079518 329 8138ft 286kts
12-Aug-18 06:51 40.872815 -112.145735 315 11111ft 305kts
12-Aug-18 06:52 40.938956 -112.234770 312 12654ft 366kts
12-Aug-18 06:53 41.009258 -112.337035 311 15189ft 384kts
12-Aug-18 06:54 41.086365 -112.439450 322 17569ft 402kts
12-Aug-18 06:55 41.182299 -112.521361 323 19861ft 416kts
12-Aug-18 06:56 41.274554 -112.617547 316 21958ft 427kts
12-Aug-18 06:57 41.356594 -112.734386 310 23811ft 436kts
12-Aug-18 06:58 41.438198 -112.856214 309 25518ft 444kts
12-Aug-18 06:59 41.519951 -112.981889 308 27050ft 452kts
12-Aug-18 07:00 41.602835 -113.109817 308 28420ft 460kts
12-Aug-18 07:01 41.687498 -113.240102 308 29751ft 464kts
12-Aug-18 07:02 41.771324 -113.369844 307 31535ft 457kts
12-Aug-18 07:03 41.853842 -113.498330 306 33223ft 450kts
12-Aug-18 07:04 41.935158 -113.625550 306 34160ft 451kts
12-Aug-18 07:05 42.016395 -113.752705 305 34166ft 447kts
12-Aug-18 07:06 42.097308 -113.880655 305 34172ft 447kts
12-Aug-18 07:07 42.177864 -114.008483 305 34175ft 448kts
12-Aug-18 07:08 42.258481 -114.136298 305 34180ft 447kts
12-Aug-18 07:09 42.339372 -114.264244 305 34184ft 447kts
12-Aug-18 07:10 42.419364 -114.392243 305 34188ft 446kts
12-Aug-18 07:11 42.499965 -114.520845 306 34189ft 447kts
12-Aug-18 07:12 42.581852 -114.647475 305 34177ft 446kts
12-Aug-18 07:13 42.663359 -114.774455 305 34167ft 446kts
12-Aug-18 07:14 42.745024 -114.901598 305 34159ft 446kts
12-Aug-18 07:15 42.826354 -115.028576 305 34159ft 445kts
12-Aug-18 07:16 42.907325 -115.155858 305 34158ft 445kts
12-Aug-18 07:17 42.988308 -115.283797 304 34152ft 444kts
12-Aug-18 07:18 43.068953 -115.411824 304 34148ft 444kts
12-Aug-18 07:19 43.149064 -115.539555 304 34177ft 443kts
12-Aug-18 07:20 43.229326 -115.668107 304 34177ft 442kts
12-Aug-18 07:21 43.309118 -115.796461 304 34178ft 442kts
12-Aug-18 07:22 43.388972 -115.925019 303 34183ft 442kts
12-Aug-18 07:23 43.468407 -116.054137 303 34182ft 441kts
12-Aug-18 07:24 43.547729 -116.183099 306 34178ft 444kts
12-Aug-18 07:25 43.640012 -116.298947 311 34179ft 449kts
12-Aug-18 07:26 43.733579 -116.413620 311 34175ft 449kts
12-Aug-18 07:27 43.826687 -116.528228 311 34178ft 448kts
12-Aug-18 07:28 43.919884 -116.642798 311 34181ft 448kts
12-Aug-18 07:29 44.013186 -116.757626 311 34182ft 447kts
12-Aug-18 07:30 44.105331 -116.872931 310 34182ft 446kts
12-Aug-18 07:31 44.197825 -116.988836 310 34184ft 446kts
12-Aug-18 07:32 44.289938 -117.104685 310 34192ft 445kts
12-Aug-18 07:33 44.381615 -117.220462 310 34206ft 445kts
12-Aug-18 07:34 44.473332 -117.336790 310 34225ft 444kts
12-Aug-18 07:35 44.564675 -117.453160 310 34243ft 444kts
12-Aug-18 07:36 44.656213 -117.569892 309 34258ft 444kts
12-Aug-18 07:37 44.747404 -117.687280 309 34266ft 443kts
12-Aug-18 07:38 44.838018 -117.804509 309 34269ft 443kts
12-Aug-18 07:39 44.928905 -117.922023 309 34270ft 442kts
12-Aug-18 07:40 45.019137 -118.039711 308 34271ft 440kts
12-Aug-18 07:41 45.109267 -118.157482 308 34271ft 440kts
12-Aug-18 07:42 45.198979 -118.274512 308 34272ft 439kts
12-Aug-18 07:43 45.288560 -118.392291 307 34274ft 439kts
12-Aug-18 07:44 45.377864 -118.510352 307 34273ft 438kts
12-Aug-18 07:45 45.467232 -118.628994 307 34269ft 438kts
12-Aug-18 07:46 45.556368 -118.747570 307 34253ft 438kts
12-Aug-18 07:47 45.644886 -118.866534 307 34233ft 437kts
12-Aug-18 07:48 45.729964 -118.989236 301 34228ft 429kts
12-Aug-18 07:49 45.805679 -119.119302 302 34215ft 424kts
12-Aug-18 07:50 45.881571 -119.248964 302 34210ft 424kts
12-Aug-18 07:51 45.944933 -119.356813 302 34210ft 424kts
12-Aug-18 07:52 46.033923 -119.507989 302 34209ft 423kts
12-Aug-18 07:53 46.096763 -119.616149 302 34210ft 423kts
12-Aug-18 07:54 46.172221 -119.746808 302 34210ft 423kts
12-Aug-18 07:55 46.260041 -119.899220 302 33839ft 420kts
12-Aug-18 07:56 46.321844 -120.007110 302 31533ft 418kts
12-Aug-18 07:57 46.406910 -120.155632 303 29020ft 402kts
12-Aug-18 07:58 46.465374 -120.258563 304 27314ft 392kts
12-Aug-18 07:59 46.533355 -120.379083 304 25307ft 380kts
12-Aug-18 08:00 46.597608 -120.499335 301 23822ft 376kts
12-Aug-18 08:01 46.657009 -120.625021 301 22917ft 376kts
12-Aug-18 08:02 46.716225 -120.749894 302 22031ft 372kts
12-Aug-18 08:03 46.774446 -120.873375 302 21159ft 368kts
12-Aug-18 08:04 46.831917 -120.995516 302 20305ft 361kts
12-Aug-18 08:05 46.888701 -121.116812 302 19397ft 359kts
12-Aug-18 08:06 46.944857 -121.235933 302 18623ft 355kts
12-Aug-18 08:07 47.000233 -121.355271 302 17548ft 349kts
12-Aug-18 08:08 47.054417 -121.472631 302 16717ft 342kts
12-Aug-18 08:09 47.106077 -121.584290 303 15932ft 325kts
12-Aug-18 08:10 47.156478 -121.694170 303 15159ft 322kts
12-Aug-18 08:11 47.206081 -121.802866 303 14398ft 319kts
12-Aug-18 08:12 47.255463 -121.910574 303 13637ft 317kts
12-Aug-18 08:13 47.303880 -122.017507 303 12889ft 313kts
12-Aug-18 08:14 47.351027 -122.120816 312 12154ft 291kts
12-Aug-18 08:15 47.423135 -122.167230 353 11432ft 286kts
12-Aug-18 08:16 47.501778 -122.170209 357 10989ft 277kts
12-Aug-18 08:17 47.576497 -122.172641 357 10057ft 263kts
12-Aug-18 08:18 47.649877 -122.176358 357 8031ft 266kts
12-Aug-18 08:19 47.722839 -122.181910 349 6356ft 255kts
12-Aug-18 08:20 47.779692 -122.236160 304 4846ft 243kts
12-Aug-18 08:21 47.767692 -122.313913 191 3992ft 224kts
12-Aug-18 08:22 47.705765 -122.315834 180 4000ft 221kts
12-Aug-18 08:23 47.647966 -122.316240 180 3933ft 190kts
12-Aug-18 08:24 47.597634 -122.316677 180 3028ft 163kts
12-Aug-18 08:25 47.553532 -122.317058 180 2181ft 159kts
12-Aug-18 08:26 47.509564 -122.317453 179 1335ft 154kts
12-Aug-18 08:27 47.467257 -122.317809 180 534ft 149kts
12-Aug-18 08:28 47.444094 -122.316004 149 441ft 29kts
12-Aug-18 08:29 47.441375 -122.310756 144 441ft 21kts
12-Aug-18 08:30 47.439661 -122.309253 144 441ft 7kts
12-Aug-18 08:31 47.439384 -122.306629 31 441ft 9kts
12-Aug-18 08:32 47.440053 -122.303131 59 441ft 8kts
12-Aug-18 08:33 47.441286 -122.301634 47 441ft 1kts
12-Aug-18 08:34 47.441464 -122.301361 45 441ft 0kts
12-Aug-18 08:35 47.441464 -122.301361 45 441ft 0kts
12-Aug-18 08:36 47.441464 -122.301361 45 441ft 0kts
12-Aug-18 08:37 47.441464 -122.301361 45 441ft 0kts
12-Aug-18 08:38 47.441464 -122.301361 45 441ft 0kts
12-Aug-18 08:39 47.441464 -122.301361 45 441ft 0kts
12-Aug-18 08:40 47.441464 -122.301361 45 441ft 0kts
12-Aug-18 08:41 47.441464 -122.301361 45 441ft 0kts
12-Aug-18 08:42 47.441464 -122.301361 45 441ft 0kts

Navigation Log

Ident Type
Flight plan parsing failed, navigation log unavailable